sensor_id;sensor_type;location;lat;lon;timestamp;temperature;humidity
44767;DHT22;30487;48.716;9.272;2023-05-10T00:00:15;14.20;99.90
44767;DHT22;30487;48.716;9.272;2023-05-10T00:02:40;14.10;99.90
44767;DHT22;30487;48.716;9.272;2023-05-10T00:05:06;14.10;99.90
44767;DHT22;30487;48.716;9.272;2023-05-10T00:07:32;14.10;99.90
44767;DHT22;30487;48.716;9.272;2023-05-10T00:09:58;14.00;99.90
44767;DHT22;30487;48.716;9.272;2023-05-10T00:12:23;14.10;99.90
44767;DHT22;30487;48.716;9.272;2023-05-10T00:14:49;14.10;99.90
44767;DHT22;30487;48.716;9.272;2023-05-10T00:17:14;14.10;99.90
44767;DHT22;30487;48.716;9.272;2023-05-10T00:19:40;14.20;99.90
44767;DHT22;30487;48.716;9.272;2023-05-10T00:22:06;14.20;99.90
44767;DHT22;30487;48.716;9.272;2023-05-10T00:24:31;14.20;99.90
44767;DHT22;30487;48.716;9.272;2023-05-10T00:26:57;14.20;99.90
44767;DHT22;30487;48.716;9.272;2023-05-10T00:29:22;14.10;99.90
44767;DHT22;30487;48.716;9.272;2023-05-10T00:31:48;14.10;99.90
44767;DHT22;30487;48.716;9.272;2023-05-10T00:34:13;14.10;99.90
44767;DHT22;30487;48.716;9.272;2023-05-10T00:36:39;14.10;99.90
44767;DHT22;30487;48.716;9.272;2023-05-10T00:39:04;14.10;99.90
44767;DHT22;30487;48.716;9.272;2023-05-10T00:41:30;14.00;99.90
44767;DHT22;30487;48.716;9.272;2023-05-10T00:43:59;14.00;99.90
44767;DHT22;30487;48.716;9.272;2023-05-10T00:46:25;14.10;99.90
44767;DHT22;30487;48.716;9.272;2023-05-10T00:48:51;14.10;99.90
44767;DHT22;30487;48.716;9.272;2023-05-10T00:51:17;14.10;99.90
44767;DHT22;30487;48.716;9.272;2023-05-10T00:53:44;14.10;99.90
44767;DHT22;30487;48.716;9.272;2023-05-10T00:56:10;14.20;99.90
44767;DHT22;30487;48.716;9.272;2023-05-10T00:58:36;14.00;99.90
44767;DHT22;30487;48.716;9.272;2023-05-10T01:01:02;14.00;99.90
44767;DHT22;30487;48.716;9.272;2023-05-10T01:03:28;13.90;99.90
44767;DHT22;30487;48.716;9.272;2023-05-10T01:05:54;13.90;99.90
44767;DHT22;30487;48.716;9.272;2023-05-10T01:08:20;13.90;99.90
44767;DHT22;30487;48.716;9.272;2023-05-10T01:10:46;13.80;99.90
44767;DHT22;30487;48.716;9.272;2023-05-10T01:13:52;13.80;99.90
44767;DHT22;30487;48.716;9.272;2023-05-10T01:16:10;14.00;99.90
44767;DHT22;30487;48.716;9.272;2023-05-10T01:18:40;13.90;99.90
44767;DHT22;30487;48.716;9.272;2023-05-10T01:32:43;13.80;99.90
44767;DHT22;30487;48.716;9.272;2023-05-10T01:38:27;13.70;99.90
44767;DHT22;30487;48.716;9.272;2023-05-10T01:41:17;13.70;99.90
44767;DHT22;30487;48.716;9.272;2023-05-10T01:44:17;13.70;99.90
44767;DHT22;30487;48.716;9.272;2023-05-10T01:46:49;13.70;99.90
44767;DHT22;30487;48.716;9.272;2023-05-10T01:49:23;13.60;99.90
44767;DHT22;30487;48.716;9.272;2023-05-10T01:51:54;13.60;99.90
44767;DHT22;30487;48.716;9.272;2023-05-10T01:54:23;13.60;99.90
44767;DHT22;30487;48.716;9.272;2023-05-10T01:56:55;13.60;99.90
44767;DHT22;30487;48.716;9.272;2023-05-10T01:59:21;13.60;99.90
44767;DHT22;30487;48.716;9.272;2023-05-10T02:01:48;13.50;99.90
44767;DHT22;30487;48.716;9.272;2023-05-10T02:04:16;13.60;99.90
44767;DHT22;30487;48.716;9.272;2023-05-10T02:06:43;13.50;99.90
44767;DHT22;30487;48.716;9.272;2023-05-10T02:09:11;13.50;99.90
44767;DHT22;30487;48.716;9.272;2023-05-10T02:11:42;13.50;99.90
44767;DHT22;30487;48.716;9.272;2023-05-10T02:14:09;13.50;99.90
44767;DHT22;30487;48.716;9.272;2023-05-10T02:16:36;13.40;99.90
44767;DHT22;30487;48.716;9.272;2023-05-10T02:19:03;13.40;99.90
44767;DHT22;30487;48.716;9.272;2023-05-10T02:21:29;13.40;99.90
44767;DHT22;30487;48.716;9.272;2023-05-10T02:23:57;13.30;99.90
44767;DHT22;30487;48.716;9.272;2023-05-10T02:26:23;13.20;99.90
44767;DHT22;30487;48.716;9.272;2023-05-10T02:28:51;13.20;99.90
44767;DHT22;30487;48.716;9.272;2023-05-10T02:31:18;13.20;99.90
44767;DHT22;30487;48.716;9.272;2023-05-10T02:33:44;13.10;99.90
44767;DHT22;30487;48.716;9.272;2023-05-10T02:36:12;13.20;99.90
44767;DHT22;30487;48.716;9.272;2023-05-10T02:38:39;13.20;99.90
44767;DHT22;30487;48.716;9.272;2023-05-10T02:41:07;13.30;99.90
44767;DHT22;30487;48.716;9.272;2023-05-10T02:43:34;13.30;99.90
44767;DHT22;30487;48.716;9.272;2023-05-10T02:46:01;13.30;99.90
44767;DHT22;30487;48.716;9.272;2023-05-10T02:48:27;13.30;99.90
44767;DHT22;30487;48.716;9.272;2023-05-10T02:50:55;13.20;99.90
44767;DHT22;30487;48.716;9.272;2023-05-10T02:53:27;13.20;99.90
44767;DHT22;30487;48.716;9.272;2023-05-10T02:55:58;13.20;99.90
44767;DHT22;30487;48.716;9.272;2023-05-10T02:58:24;13.20;99.90
44767;DHT22;30487;48.716;9.272;2023-05-10T03:00:50;13.10;99.90
44767;DHT22;30487;48.716;9.272;2023-05-10T03:03:16;13.20;99.90
44767;DHT22;30487;48.716;9.272;2023-05-10T03:05:41;13.20;99.90
44767;DHT22;30487;48.716;9.272;2023-05-10T03:08:07;13.20;99.90
44767;DHT22;30487;48.716;9.272;2023-05-10T03:10:39;13.20;99.90
44767;DHT22;30487;48.716;9.272;2023-05-10T03:13:16;13.20;99.90
44767;DHT22;30487;48.716;9.272;2023-05-10T03:16:12;13.30;99.90
44767;DHT22;30487;48.716;9.272;2023-05-10T03:18:48;13.30;99.90
44767;DHT22;30487;48.716;9.272;2023-05-10T03:21:17;13.30;99.90
44767;DHT22;30487;48.716;9.272;2023-05-10T03:23:50;13.40;99.90
44767;DHT22;30487;48.716;9.272;2023-05-10T03:26:27;13.30;99.90
44767;DHT22;30487;48.716;9.272;2023-05-10T03:28:53;13.30;99.90
44767;DHT22;30487;48.716;9.272;2023-05-10T03:31:19;13.30;99.90
44767;DHT22;30487;48.716;9.272;2023-05-10T03:33:47;13.30;99.90
44767;DHT22;30487;48.716;9.272;2023-05-10T03:36:13;13.20;99.90
44767;DHT22;30487;48.716;9.272;2023-05-10T03:38:39;13.20;99.90
44767;DHT22;30487;48.716;9.272;2023-05-10T03:41:04;13.00;99.90
44767;DHT22;30487;48.716;9.272;2023-05-10T03:43:30;13.10;99.90
44767;DHT22;30487;48.716;9.272;2023-05-10T03:45:55;13.00;99.90
44767;DHT22;30487;48.716;9.272;2023-05-10T03:48:21;12.90;99.90
44767;DHT22;30487;48.716;9.272;2023-05-10T03:50:46;13.00;99.90
44767;DHT22;30487;48.716;9.272;2023-05-10T03:53:12;13.10;99.90
44767;DHT22;30487;48.716;9.272;2023-05-10T03:55:38;13.10;99.90
44767;DHT22;30487;48.716;9.272;2023-05-10T03:58:03;13.10;99.90
44767;DHT22;30487;48.716;9.272;2023-05-10T04:00:29;13.10;99.90
44767;DHT22;30487;48.716;9.272;2023-05-10T04:02:55;13.10;99.90
44767;DHT22;30487;48.716;9.272;2023-05-10T04:05:20;13.10;99.90
44767;DHT22;30487;48.716;9.272;2023-05-10T04:07:46;13.00;99.90
44767;DHT22;30487;48.716;9.272;2023-05-10T04:10:14;13.00;99.90
44767;DHT22;30487;48.716;9.272;2023-05-10T04:12:41;13.00;99.90
44767;DHT22;30487;48.716;9.272;2023-05-10T04:15:07;12.90;99.90
44767;DHT22;30487;48.716;9.272;2023-05-10T04:17:33;13.00;99.90
44767;DHT22;30487;48.716;9.272;2023-05-10T04:19:59;13.00;99.90
44767;DHT22;30487;48.716;9.272;2023-05-10T04:22:24;13.10;99.90
44767;DHT22;30487;48.716;9.272;2023-05-10T04:24:50;13.10;99.90
44767;DHT22;30487;48.716;9.272;2023-05-10T04:27:15;12.90;99.90
44767;DHT22;30487;48.716;9.272;2023-05-10T04:29:41;12.90;99.90
44767;DHT22;30487;48.716;9.272;2023-05-10T04:32:07;12.90;99.90
44767;DHT22;30487;48.716;9.272;2023-05-10T04:34:33;12.80;99.90
44767;DHT22;30487;48.716;9.272;2023-05-10T04:36:59;12.90;99.90
44767;DHT22;30487;48.716;9.272;2023-05-10T04:39:25;13.00;99.90
44767;DHT22;30487;48.716;9.272;2023-05-10T04:41:50;13.00;99.90
44767;DHT22;30487;48.716;9.272;2023-05-10T04:44:19;13.00;99.90
44767;DHT22;30487;48.716;9.272;2023-05-10T04:46:44;13.00;99.90
44767;DHT22;30487;48.716;9.272;2023-05-10T04:49:10;13.10;99.90
44767;DHT22;30487;48.716;9.272;2023-05-10T04:51:36;13.10;99.90
44767;DHT22;30487;48.716;9.272;2023-05-10T04:54:01;13.10;99.90
44767;DHT22;30487;48.716;9.272;2023-05-10T04:56:27;13.00;99.90
44767;DHT22;30487;48.716;9.272;2023-05-10T04:58:52;12.90;99.90
44767;DHT22;30487;48.716;9.272;2023-05-10T05:01:18;12.90;99.90
44767;DHT22;30487;48.716;9.272;2023-05-10T05:03:44;12.90;99.90
44767;DHT22;30487;48.716;9.272;2023-05-10T05:06:09;12.90;99.90
44767;DHT22;30487;48.716;9.272;2023-05-10T05:08:35;12.90;99.90
44767;DHT22;30487;48.716;9.272;2023-05-10T05:11:00;13.00;99.90
44767;DHT22;30487;48.716;9.272;2023-05-10T05:13:26;13.00;99.90
44767;DHT22;30487;48.716;9.272;2023-05-10T05:15:51;13.00;99.90
44767;DHT22;30487;48.716;9.272;2023-05-10T05:18:17;13.10;99.90
44767;DHT22;30487;48.716;9.272;2023-05-10T05:20:43;13.10;99.90
44767;DHT22;30487;48.716;9.272;2023-05-10T05:23:08;13.20;99.90
44767;DHT22;30487;48.716;9.272;2023-05-10T05:25:34;13.20;99.90
44767;DHT22;30487;48.716;9.272;2023-05-10T05:27:59;13.30;99.90
44767;DHT22;30487;48.716;9.272;2023-05-10T05:30:25;13.30;99.90
44767;DHT22;30487;48.716;9.272;2023-05-10T05:32:50;13.50;99.90
44767;DHT22;30487;48.716;9.272;2023-05-10T05:35:16;13.60;99.90
44767;DHT22;30487;48.716;9.272;2023-05-10T05:37:42;13.70;99.90
44767;DHT22;30487;48.716;9.272;2023-05-10T05:40:08;13.70;99.90
44767;DHT22;30487;48.716;9.272;2023-05-10T05:42:33;13.60;99.90
44767;DHT22;30487;48.716;9.272;2023-05-10T05:44:59;13.70;99.90
44767;DHT22;30487;48.716;9.272;2023-05-10T05:47:24;13.80;99.90
44767;DHT22;30487;48.716;9.272;2023-05-10T05:49:50;13.80;99.90
44767;DHT22;30487;48.716;9.272;2023-05-10T05:52:16;13.90;99.90
44767;DHT22;30487;48.716;9.272;2023-05-10T05:54:42;13.90;99.90
44767;DHT22;30487;48.716;9.272;2023-05-10T05:57:07;14.00;99.90
44767;DHT22;30487;48.716;9.272;2023-05-10T05:59:33;13.90;99.90
44767;DHT22;30487;48.716;9.272;2023-05-10T06:01:59;13.80;99.90
44767;DHT22;30487;48.716;9.272;2023-05-10T06:04:24;13.80;99.90
44767;DHT22;30487;48.716;9.272;2023-05-10T06:06:50;13.80;99.90
44767;DHT22;30487;48.716;9.272;2023-05-10T06:09:15;13.80;99.90
44767;DHT22;30487;48.716;9.272;2023-05-10T06:11:41;13.70;99.90
44767;DHT22;30487;48.716;9.272;2023-05-10T06:14:06;13.70;99.90
44767;DHT22;30487;48.716;9.272;2023-05-10T06:16:34;13.70;99.90
44767;DHT22;30487;48.716;9.272;2023-05-10T06:18:59;13.80;99.90
44767;DHT22;30487;48.716;9.272;2023-05-10T06:21:25;13.90;99.90
44767;DHT22;30487;48.716;9.272;2023-05-10T06:23:51;14.00;99.90
44767;DHT22;30487;48.716;9.272;2023-05-10T06:26:16;14.10;99.90
44767;DHT22;30487;48.716;9.272;2023-05-10T06:28:42;14.00;99.90
44767;DHT22;30487;48.716;9.272;2023-05-10T06:31:08;13.90;99.90
44767;DHT22;30487;48.716;9.272;2023-05-10T06:33:34;13.90;99.90
44767;DHT22;30487;48.716;9.272;2023-05-10T06:35:59;13.90;99.90
44767;DHT22;30487;48.716;9.272;2023-05-10T06:38:25;14.00;99.90
44767;DHT22;30487;48.716;9.272;2023-05-10T06:40:51;14.00;99.90
44767;DHT22;30487;48.716;9.272;2023-05-10T06:43:17;14.00;99.90
44767;DHT22;30487;48.716;9.272;2023-05-10T06:45:42;14.00;99.90
44767;DHT22;30487;48.716;9.272;2023-05-10T06:48:08;14.00;99.90
44767;DHT22;30487;48.716;9.272;2023-05-10T06:50:34;14.10;99.90
44767;DHT22;30487;48.716;9.272;2023-05-10T06:53:00;14.00;99.90
44767;DHT22;30487;48.716;9.272;2023-05-10T06:55:27;14.10;99.90
44767;DHT22;30487;48.716;9.272;2023-05-10T06:57:52;14.20;99.90
44767;DHT22;30487;48.716;9.272;2023-05-10T07:00:18;14.20;99.90
44767;DHT22;30487;48.716;9.272;2023-05-10T07:02:45;14.20;99.90
44767;DHT22;30487;48.716;9.272;2023-05-10T07:05:11;14.20;99.90
44767;DHT22;30487;48.716;9.272;2023-05-10T07:07:37;14.20;99.90
44767;DHT22;30487;48.716;9.272;2023-05-10T07:10:03;14.20;99.90
44767;DHT22;30487;48.716;9.272;2023-05-10T07:12:28;14.20;99.90
44767;DHT22;30487;48.716;9.272;2023-05-10T07:14:54;14.20;99.90
44767;DHT22;30487;48.716;9.272;2023-05-10T07:17:20;14.20;99.90
44767;DHT22;30487;48.716;9.272;2023-05-10T07:19:45;14.20;99.90
44767;DHT22;30487;48.716;9.272;2023-05-10T07:22:11;14.30;99.90
44767;DHT22;30487;48.716;9.272;2023-05-10T07:24:37;14.40;99.90
44767;DHT22;30487;48.716;9.272;2023-05-10T07:27:03;14.50;99.90
44767;DHT22;30487;48.716;9.272;2023-05-10T07:29:29;14.40;99.90
44767;DHT22;30487;48.716;9.272;2023-05-10T07:31:55;14.40;99.90
44767;DHT22;30487;48.716;9.272;2023-05-10T07:34:21;14.50;99.90
44767;DHT22;30487;48.716;9.272;2023-05-10T07:36:46;14.60;99.90
44767;DHT22;30487;48.716;9.272;2023-05-10T07:39:12;14.60;99.90
44767;DHT22;30487;48.716;9.272;2023-05-10T07:41:38;14.70;99.90
44767;DHT22;30487;48.716;9.272;2023-05-10T07:44:04;14.70;99.90
44767;DHT22;30487;48.716;9.272;2023-05-10T07:46:30;14.60;99.90
44767;DHT22;30487;48.716;9.272;2023-05-10T07:48:55;14.60;99.90
44767;DHT22;30487;48.716;9.272;2023-05-10T07:51:21;14.40;99.90
44767;DHT22;30487;48.716;9.272;2023-05-10T07:53:47;14.60;99.90
44767;DHT22;30487;48.716;9.272;2023-05-10T07:56:31;14.60;99.90
44767;DHT22;30487;48.716;9.272;2023-05-10T07:59:01;14.60;99.90
44767;DHT22;30487;48.716;9.272;2023-05-10T08:01:30;14.70;99.90
44767;DHT22;30487;48.716;9.272;2023-05-10T08:03:56;14.80;99.90
44767;DHT22;30487;48.716;9.272;2023-05-10T08:06:22;14.80;99.90
44767;DHT22;30487;48.716;9.272;2023-05-10T08:08:48;14.90;99.90
44767;DHT22;30487;48.716;9.272;2023-05-10T08:11:19;14.90;99.90
44767;DHT22;30487;48.716;9.272;2023-05-10T08:13:46;14.90;99.90
44767;DHT22;30487;48.716;9.272;2023-05-10T08:16:11;15.00;99.90
44767;DHT22;30487;48.716;9.272;2023-05-10T08:18:38;14.90;99.90
44767;DHT22;30487;48.716;9.272;2023-05-10T08:21:04;15.00;99.90
44767;DHT22;30487;48.716;9.272;2023-05-10T08:23:30;14.80;99.90
44767;DHT22;30487;48.716;9.272;2023-05-10T08:25:56;14.90;99.90
44767;DHT22;30487;48.716;9.272;2023-05-10T08:28:22;15.00;99.90
44767;DHT22;30487;48.716;9.272;2023-05-10T08:30:49;15.00;99.90
44767;DHT22;30487;48.716;9.272;2023-05-10T08:33:15;15.00;99.90
44767;DHT22;30487;48.716;9.272;2023-05-10T08:35:40;14.90;99.90
44767;DHT22;30487;48.716;9.272;2023-05-10T08:38:06;15.00;99.90
44767;DHT22;30487;48.716;9.272;2023-05-10T08:40:32;15.00;99.90
44767;DHT22;30487;48.716;9.272;2023-05-10T08:43:09;14.90;99.90
44767;DHT22;30487;48.716;9.272;2023-05-10T08:45:43;15.00;99.90
44767;DHT22;30487;48.716;9.272;2023-05-10T08:48:11;15.10;99.90
44767;DHT22;30487;48.716;9.272;2023-05-10T08:50:41;15.10;99.90
44767;DHT22;30487;48.716;9.272;2023-05-10T08:53:10;15.10;99.90
44767;DHT22;30487;48.716;9.272;2023-05-10T08:55:37;14.90;99.90
44767;DHT22;30487;48.716;9.272;2023-05-10T08:58:04;14.90;99.90
44767;DHT22;30487;48.716;9.272;2023-05-10T09:00:30;14.80;99.90
44767;DHT22;30487;48.716;9.272;2023-05-10T09:02:58;14.80;99.90
44767;DHT22;30487;48.716;9.272;2023-05-10T09:05:24;14.80;99.90
44767;DHT22;30487;48.716;9.272;2023-05-10T09:07:49;15.00;99.90
44767;DHT22;30487;48.716;9.272;2023-05-10T09:10:15;14.80;99.90
44767;DHT22;30487;48.716;9.272;2023-05-10T09:12:41;14.80;99.90
44767;DHT22;30487;48.716;9.272;2023-05-10T09:15:09;14.70;99.90
44767;DHT22;30487;48.716;9.272;2023-05-10T09:17:36;14.90;99.90
44767;DHT22;30487;48.716;9.272;2023-05-10T09:20:03;14.90;99.90
44767;DHT22;30487;48.716;9.272;2023-05-10T09:22:33;15.00;99.90
44767;DHT22;30487;48.716;9.272;2023-05-10T09:25:10;15.00;99.90
44767;DHT22;30487;48.716;9.272;2023-05-10T09:27:37;15.00;99.90
44767;DHT22;30487;48.716;9.272;2023-05-10T09:30:04;15.00;99.90
44767;DHT22;30487;48.716;9.272;2023-05-10T09:32:41;15.00;99.90
44767;DHT22;30487;48.716;9.272;2023-05-10T09:37:34;15.10;99.90
44767;DHT22;30487;48.716;9.272;2023-05-10T09:40:00;15.30;99.90
44767;DHT22;30487;48.716;9.272;2023-05-10T09:42:25;15.40;99.90
44767;DHT22;30487;48.716;9.272;2023-05-10T09:44:51;15.40;99.90
44767;DHT22;30487;48.716;9.272;2023-05-10T09:47:17;15.50;99.90
44767;DHT22;30487;48.716;9.272;2023-05-10T09:49:49;15.60;99.90
44767;DHT22;30487;48.716;9.272;2023-05-10T09:52:14;15.70;99.90
44767;DHT22;30487;48.716;9.272;2023-05-10T09:54:52;15.70;99.90
44767;DHT22;30487;48.716;9.272;2023-05-10T09:57:22;15.70;99.90
44767;DHT22;30487;48.716;9.272;2023-05-10T09:59:48;15.70;99.90
44767;DHT22;30487;48.716;9.272;2023-05-10T10:02:14;15.70;99.90
44767;DHT22;30487;48.716;9.272;2023-05-10T10:04:40;15.80;99.90
44767;DHT22;30487;48.716;9.272;2023-05-10T10:07:07;15.80;99.90
44767;DHT22;30487;48.716;9.272;2023-05-10T10:09:34;16.00;99.90
44767;DHT22;30487;48.716;9.272;2023-05-10T10:12:01;16.00;99.90
44767;DHT22;30487;48.716;9.272;2023-05-10T10:14:27;16.10;99.90
44767;DHT22;30487;48.716;9.272;2023-05-10T10:16:53;16.20;99.90
44767;DHT22;30487;48.716;9.272;2023-05-10T10:19:20;16.40;99.90
44767;DHT22;30487;48.716;9.272;2023-05-10T10:21:46;16.60;99.90
44767;DHT22;30487;48.716;9.272;2023-05-10T10:24:12;16.80;99.90
44767;DHT22;30487;48.716;9.272;2023-05-10T10:26:38;16.90;99.90
44767;DHT22;30487;48.716;9.272;2023-05-10T10:29:19;16.90;99.90
44767;DHT22;30487;48.716;9.272;2023-05-10T10:34:29;16.90;99.90
44767;DHT22;30487;48.716;9.272;2023-05-10T10:36:56;17.00;99.90
44767;DHT22;30487;48.716;9.272;2023-05-10T10:39:23;17.30;99.90
44767;DHT22;30487;48.716;9.272;2023-05-10T10:41:54;17.30;99.90
44767;DHT22;30487;48.716;9.272;2023-05-10T10:47:05;17.40;99.90
44767;DHT22;30487;48.716;9.272;2023-05-10T10:52:30;17.20;99.90
44767;DHT22;30487;48.716;9.272;2023-05-10T10:57:44;16.80;99.90
44767;DHT22;30487;48.716;9.272;2023-05-10T11:03:08;16.80;99.90
44767;DHT22;30487;48.716;9.272;2023-05-10T11:05:43;16.80;99.90
44767;DHT22;30487;48.716;9.272;2023-05-10T11:08:11;16.80;99.90
44767;DHT22;30487;48.716;9.272;2023-05-10T11:10:38;16.50;99.90
44767;DHT22;30487;48.716;9.272;2023-05-10T11:13:08;16.50;99.90
44767;DHT22;30487;48.716;9.272;2023-05-10T11:15:37;16.60;99.90
44767;DHT22;30487;48.716;9.272;2023-05-10T11:18:20;16.70;99.90
44767;DHT22;30487;48.716;9.272;2023-05-10T11:21:04;16.50;99.90
44767;DHT22;30487;48.716;9.272;2023-05-10T11:23:48;16.20;99.90
44767;DHT22;30487;48.716;9.272;2023-05-10T11:26:14;16.10;99.90
44767;DHT22;30487;48.716;9.272;2023-05-10T11:28:44;16.00;99.90
44767;DHT22;30487;48.716;9.272;2023-05-10T11:31:10;15.60;99.90
44767;DHT22;30487;48.716;9.272;2023-05-10T11:33:53;15.40;99.90
44767;DHT22;30487;48.716;9.272;2023-05-10T11:36:20;15.20;99.90
44767;DHT22;30487;48.716;9.272;2023-05-10T11:38:47;15.10;99.90
44767;DHT22;30487;48.716;9.272;2023-05-10T11:41:13;15.00;99.90
44767;DHT22;30487;48.716;9.272;2023-05-10T11:43:39;14.90;99.90
44767;DHT22;30487;48.716;9.272;2023-05-10T11:46:10;14.80;99.90
44767;DHT22;30487;48.716;9.272;2023-05-10T11:48:37;14.80;99.90
44767;DHT22;30487;48.716;9.272;2023-05-10T11:51:03;14.60;99.90
44767;DHT22;30487;48.716;9.272;2023-05-10T11:53:30;14.40;99.90
44767;DHT22;30487;48.716;9.272;2023-05-10T11:56:03;14.20;99.90
44767;DHT22;30487;48.716;9.272;2023-05-10T11:58:30;14.20;99.90
44767;DHT22;30487;48.716;9.272;2023-05-10T12:00:56;14.20;99.90
44767;DHT22;30487;48.716;9.272;2023-05-10T12:03:22;14.30;99.90
44767;DHT22;30487;48.716;9.272;2023-05-10T12:05:48;14.20;99.90
44767;DHT22;30487;48.716;9.272;2023-05-10T12:08:15;14.30;99.90
44767;DHT22;30487;48.716;9.272;2023-05-10T12:10:41;14.50;99.90
44767;DHT22;30487;48.716;9.272;2023-05-10T12:13:16;14.60;99.90
44767;DHT22;30487;48.716;9.272;2023-05-10T12:15:43;14.60;99.90
44767;DHT22;30487;48.716;9.272;2023-05-10T12:18:12;14.80;99.90
44767;DHT22;30487;48.716;9.272;2023-05-10T12:20:40;14.90;99.90
44767;DHT22;30487;48.716;9.272;2023-05-10T12:23:08;15.00;99.90
44767;DHT22;30487;48.716;9.272;2023-05-10T12:25:37;15.10;99.90
44767;DHT22;30487;48.716;9.272;2023-05-10T12:28:06;15.30;99.90
44767;DHT22;30487;48.716;9.272;2023-05-10T12:30:33;15.50;99.90
44767;DHT22;30487;48.716;9.272;2023-05-10T12:33:19;15.70;99.90
44767;DHT22;30487;48.716;9.272;2023-05-10T12:35:45;16.00;99.90
44767;DHT22;30487;48.716;9.272;2023-05-10T12:38:33;16.00;99.90
44767;DHT22;30487;48.716;9.272;2023-05-10T12:41:01;16.10;99.90
44767;DHT22;30487;48.716;9.272;2023-05-10T12:43:27;16.20;99.90
44767;DHT22;30487;48.716;9.272;2023-05-10T12:45:53;16.30;99.90
44767;DHT22;30487;48.716;9.272;2023-05-10T12:48:19;16.30;99.90
44767;DHT22;30487;48.716;9.272;2023-05-10T12:50:45;16.30;99.90
44767;DHT22;30487;48.716;9.272;2023-05-10T12:53:11;16.20;99.90
44767;DHT22;30487;48.716;9.272;2023-05-10T12:55:36;16.00;99.90
44767;DHT22;30487;48.716;9.272;2023-05-10T12:58:02;16.00;99.90
44767;DHT22;30487;48.716;9.272;2023-05-10T13:00:28;16.00;99.90
44767;DHT22;30487;48.716;9.272;2023-05-10T13:02:53;16.00;99.90
44767;DHT22;30487;48.716;9.272;2023-05-10T13:05:19;15.90;99.90
44767;DHT22;30487;48.716;9.272;2023-05-10T13:07:44;15.80;99.90
44767;DHT22;30487;48.716;9.272;2023-05-10T13:10:10;15.80;99.90
44767;DHT22;30487;48.716;9.272;2023-05-10T13:12:36;15.80;99.90
44767;DHT22;30487;48.716;9.272;2023-05-10T13:15:02;16.00;99.90
44767;DHT22;30487;48.716;9.272;2023-05-10T13:17:28;16.10;99.90
44767;DHT22;30487;48.716;9.272;2023-05-10T13:19:54;16.20;99.90
44767;DHT22;30487;48.716;9.272;2023-05-10T13:22:19;16.30;99.90
44767;DHT22;30487;48.716;9.272;2023-05-10T13:24:45;16.40;99.90
44767;DHT22;30487;48.716;9.272;2023-05-10T13:27:10;16.70;99.90
44767;DHT22;30487;48.716;9.272;2023-05-10T13:29:36;16.90;99.90
44767;DHT22;30487;48.716;9.272;2023-05-10T13:32:02;17.00;99.90
44767;DHT22;30487;48.716;9.272;2023-05-10T13:34:27;17.20;99.90
44767;DHT22;30487;48.716;9.272;2023-05-10T13:36:53;17.40;99.90
44767;DHT22;30487;48.716;9.272;2023-05-10T13:39:20;17.50;99.90
44767;DHT22;30487;48.716;9.272;2023-05-10T13:41:45;17.50;99.90
44767;DHT22;30487;48.716;9.272;2023-05-10T13:44:12;17.60;99.90
44767;DHT22;30487;48.716;9.272;2023-05-10T13:46:39;17.60;99.90
44767;DHT22;30487;48.716;9.272;2023-05-10T13:49:04;17.60;99.90
44767;DHT22;30487;48.716;9.272;2023-05-10T13:51:30;17.80;99.90
44767;DHT22;30487;48.716;9.272;2023-05-10T13:53:57;17.90;99.90
44767;DHT22;30487;48.716;9.272;2023-05-10T13:56:23;18.00;99.90
44767;DHT22;30487;48.716;9.272;2023-05-10T13:58:48;18.00;99.90
44767;DHT22;30487;48.716;9.272;2023-05-10T14:01:14;18.00;99.90
44767;DHT22;30487;48.716;9.272;2023-05-10T14:03:40;17.90;99.90
44767;DHT22;30487;48.716;9.272;2023-05-10T14:06:06;18.00;99.90
44767;DHT22;30487;48.716;9.272;2023-05-10T14:08:33;18.10;99.90
44767;DHT22;30487;48.716;9.272;2023-05-10T14:10:59;18.10;99.90
44767;DHT22;30487;48.716;9.272;2023-05-10T14:13:25;18.10;99.90
44767;DHT22;30487;48.716;9.272;2023-05-10T14:15:52;18.20;99.90
44767;DHT22;30487;48.716;9.272;2023-05-10T14:18:17;18.30;99.90
44767;DHT22;30487;48.716;9.272;2023-05-10T14:20:43;18.50;99.90
44767;DHT22;30487;48.716;9.272;2023-05-10T14:23:08;18.60;99.90
44767;DHT22;30487;48.716;9.272;2023-05-10T14:25:34;18.60;99.90
44767;DHT22;30487;48.716;9.272;2023-05-10T14:28:00;18.50;99.90
44767;DHT22;30487;48.716;9.272;2023-05-10T14:30:26;18.40;99.90
44767;DHT22;30487;48.716;9.272;2023-05-10T14:32:51;18.50;99.90
44767;DHT22;30487;48.716;9.272;2023-05-10T14:35:19;18.40;99.90
44767;DHT22;30487;48.716;9.272;2023-05-10T14:37:45;18.40;99.90
44767;DHT22;30487;48.716;9.272;2023-05-10T14:40:11;18.40;99.90
44767;DHT22;30487;48.716;9.272;2023-05-10T14:42:37;18.30;99.90
44767;DHT22;30487;48.716;9.272;2023-05-10T14:45:04;18.10;99.90
44767;DHT22;30487;48.716;9.272;2023-05-10T14:47:29;18.10;99.90
44767;DHT22;30487;48.716;9.272;2023-05-10T14:49:55;18.10;99.90
44767;DHT22;30487;48.716;9.272;2023-05-10T14:52:21;18.10;99.90
44767;DHT22;30487;48.716;9.272;2023-05-10T14:54:46;18.10;99.90
44767;DHT22;30487;48.716;9.272;2023-05-10T14:57:12;18.10;99.90
44767;DHT22;30487;48.716;9.272;2023-05-10T14:59:38;18.10;99.90
44767;DHT22;30487;48.716;9.272;2023-05-10T15:02:03;18.10;99.90
44767;DHT22;30487;48.716;9.272;2023-05-10T15:04:29;18.00;99.90
44767;DHT22;30487;48.716;9.272;2023-05-10T15:06:55;18.10;99.90
44767;DHT22;30487;48.716;9.272;2023-05-10T15:09:24;18.10;99.90
44767;DHT22;30487;48.716;9.272;2023-05-10T15:11:50;18.00;99.90
44767;DHT22;30487;48.716;9.272;2023-05-10T15:14:16;18.00;99.90
44767;DHT22;30487;48.716;9.272;2023-05-10T15:16:41;17.90;99.90
44767;DHT22;30487;48.716;9.272;2023-05-10T15:19:07;17.90;99.90
44767;DHT22;30487;48.716;9.272;2023-05-10T15:21:32;17.80;99.90
44767;DHT22;30487;48.716;9.272;2023-05-10T15:24:04;17.70;99.90
44767;DHT22;30487;48.716;9.272;2023-05-10T15:26:30;17.60;99.90
44767;DHT22;30487;48.716;9.272;2023-05-10T15:28:56;17.60;99.90
44767;DHT22;30487;48.716;9.272;2023-05-10T15:31:21;17.70;99.90
44767;DHT22;30487;48.716;9.272;2023-05-10T15:33:47;17.70;99.90
44767;DHT22;30487;48.716;9.272;2023-05-10T15:36:13;17.80;99.90
44767;DHT22;30487;48.716;9.272;2023-05-10T15:38:38;17.80;99.90
44767;DHT22;30487;48.716;9.272;2023-05-10T15:41:04;17.90;99.90
44767;DHT22;30487;48.716;9.272;2023-05-10T15:43:30;18.00;99.90
44767;DHT22;30487;48.716;9.272;2023-05-10T15:45:55;18.00;99.90
44767;DHT22;30487;48.716;9.272;2023-05-10T15:48:21;18.00;99.90
44767;DHT22;30487;48.716;9.272;2023-05-10T15:50:46;17.90;99.60
44767;DHT22;30487;48.716;9.272;2023-05-10T15:53:12;17.90;99.60
44767;DHT22;30487;48.716;9.272;2023-05-10T15:55:37;17.90;99.30
44767;DHT22;30487;48.716;9.272;2023-05-10T15:58:03;17.90;99.40
44767;DHT22;30487;48.716;9.272;2023-05-10T16:00:29;17.80;99.80